Wetterdaten: aktuell Donnerstag, 04.06.2020 03:30
Datum Zeit Temp. A. Feuchte A. Luftdruck Regen Wind Richtung Richtung Sonnenschein Solar Windben
04.06.2020 03:30 13,8 C 71 % 999,8 hPa 0,0 l/m 4,6 km/h (1 Bft) O-NO 69 0 min 0 W/m 14,5 km/h (3 Bft)
04.06.2020 02:30 12,4 C 80 % 1000,2 hPa 0,0 l/m 0,9 km/h (0 Bft) O 87 0 min 0 W/m 4,8 km/h (1 Bft)
04.06.2020 01:30 11,8 C 82 % 1000,7 hPa 0,0 l/m 0,0 km/h (0 Bft) O 86 0 min 0 W/m 0,0 km/h (0 Bft)
04.06.2020 00:30 13,0 C 78 % 1001,2 hPa 0,0 l/m 0,7 km/h (0 Bft) O-NO 63 0 min 0 W/m 6,4 km/h (2 Bft)
03.06.2020 23:30 12,7 C 80 % 1001,7 hPa 0,0 l/m 0,0 km/h (0 Bft) O-SO 118 0 min 0 W/m 0,0 km/h (0 Bft)
03.06.2020 22:30 13,7 C 76 % 1002,4 hPa 0,0 l/m 0,0 km/h (0 Bft) N 5 0 min 0 W/m 0,0 km/h (0 Bft)
03.06.2020 21:30 14,8 C 71 % 1003,3 hPa 0,0 l/m 0,0 km/h (0 Bft) N-NW 331 0 min 0 W/m 0,0 km/h (0 Bft)
03.06.2020 20:30 16,6 C 66 % 1003,3 hPa 0,0 l/m 0,6 km/h (0 Bft) NO 51 0 min 0 W/m 6,4 km/h (2 Bft)
03.06.2020 19:30 19,4 C 60 % 1003,4 hPa 0,0 l/m 0,0 km/h (0 Bft) N-NW 339 0 min 28 W/m 0,0 km/h (0 Bft)
03.06.2020 18:30 20,9 C 45 % 1003,5 hPa 0,0 l/m 2,5 km/h (1 Bft) N-NW 335 30 min 72 W/m 8,0 km/h (2 Bft)
03.06.2020 17:30 21,7 C 42 % 1003,4 hPa 0,0 l/m 5,1 km/h (1 Bft) N-NW 335 45 min 180 W/m 12,9 km/h (3 Bft)
03.06.2020 16:30 22,3 C 43 % 1003,8 hPa 0,0 l/m 5,3 km/h (1 Bft) NO 37 60 min 494 W/m 14,5 km/h (3 Bft)
03.06.2020 15:30 22,1 C 44 % 1004,5 hPa 0,0 l/m 6,8 km/h (2 Bft) NO 34 60 min 647 W/m 16,1 km/h (3 Bft)
03.06.2020 14:30 21,9 C 49 % 1004,9 hPa 0,0 l/m 6,9 km/h (2 Bft) N-NW 340 60 min 794 W/m 17,7 km/h (3 Bft)
03.06.2020 13:30 21,4 C 49 % 1005,6 hPa 0,0 l/m 8,8 km/h (2 Bft) N-NW 341 60 min 792 W/m 20,9 km/h (4 Bft)
03.06.2020 12:30 21,1 C 54 % 1006,5 hPa 0,0 l/m 7,2 km/h (2 Bft) NW 325 60 min 867 W/m 17,7 km/h (3 Bft)
03.06.2020 11:30 20,3 C 61 % 1007,0 hPa 0,0 l/m 7,4 km/h (2 Bft) N 355 60 min 859 W/m 19,3 km/h (3 Bft)
03.06.2020 10:30 19,8 C 61 % 1007,3 hPa 0,0 l/m 7,5 km/h (2 Bft) N-NW 342 60 min 805 W/m 16,1 km/h (3 Bft)
03.06.2020 09:30 19,3 C 61 % 1007,9 hPa 0,0 l/m 7,3 km/h (2 Bft) N-NW 331 60 min 694 W/m 17,7 km/h (3 Bft)
03.06.2020 08:30 18,9 C 66 % 1008,0 hPa 0,2 l/m 3,2 km/h (1 Bft) NW 315 60 min 568 W/m 9,7 km/h (2 Bft)
03.06.2020 07:30 17,0 C 73 % 1008,4 hPa 0,0 l/m 2,2 km/h (1 Bft) W 274 60 min 414 W/m 6,4 km/h (2 Bft)
03.06.2020 06:30 15,2 C 80 % 1008,6 hPa 0,0 l/m 2,0 km/h (1 Bft) W-SW 252 15 min 228 W/m 6,4 km/h (2 Bft)
03.06.2020 05:30 12,3 C 92 % 1008,7 hPa 0,0 l/m 0,0 km/h (0 Bft) S-SO 154 0 min 72 W/m 0,0 km/h (0 Bft)
03.06.2020 04:30 8,9 C 92 % 1009,2 hPa 0,0 l/m 0,0 km/h (0 Bft) S-SO 154 0 min 13 W/m 0,0 km/h (0 Bft)
03.06.2020 04:00 8,6 C 92 % 1009,3 hPa 0,0 l/m 0,0 km/h (0 Bft) S-SO 154 0 min 1 W/m 0,0 km/h (0 Bft)
_ Min-Zeit 04:15 16:45 03:30 - 04:00 - - - - 04:00
Minimum _ 8,6 C 40 % 999,8 hPa - 0,0 km/h (0 Bft) - - - - 0,0 km/h (0 Bft)
_ Max-Zeit 17:00 04:45 04:00 08:00 13:30 - - 06:30 13:00 13:30
Maximum _ 22,7 C 93 % 1009,3 hPa 0,2 l/m 8,8 km/h
N-NW (2 Bft)
- - 15 min 870 W/m 20,9 km/h
N-NW (4 Bft)
Durchschnitt _ 16,6 C 67 % 1005,1 hPa #0,2 l/m 3,0 km/h (1 Bft) N-NW - #0 min. 0 W/m 8,6 km/h (2 Bft)